This is the latest recevied weather packets stored in our database for station/object KC3UTO. If no packets are shown the sender has not sent any weather packets the latest 10 day(s).
| Time | Temp. | Humidity | Pressure | Rain* | Wind** | Luminosity | Snow |
|---|---|---|---|---|---|---|---|
| 1777593444 | 11.11° C | 82% | 1009.1 hPa | 0 mm | - | 2 W/m² | - |
| 1777593142 | 11.11° C | 82% | 1009 hPa | 0 mm | - | 4 W/m² | - |
| 1777592841 | 11.11° C | 83% | 1009.1 hPa | 0 mm | - | 6 W/m² | - |
| 1777592538 | 11.11° C | 84% | 1008.8 hPa | 0 mm | - | 8 W/m² | - |
| 1777592234 | 11.11° C | 86% | 1008.8 hPa | 0 mm | - | 10 W/m² | - |
| 1777591930 | 11.11° C | 86% | 1008.8 hPa | 0 mm | - | 13 W/m² | - |
| 1777591626 | 11.11° C | 86% | 1008.7 hPa | 0 mm | - | 15 W/m² | - |
| 1777591323 | 11.11° C | 87% | 1008.6 hPa | 0 mm | - | 16 W/m² | - |
| 1777591018 | 11.11° C | 88% | 1008.6 hPa | 0 mm | - | 13 W/m² | - |
| 1777590714 | 11.11° C | 88% | 1008.4 hPa | 0 mm | - | 9 W/m² | - |
| 1777590410 | 11.11° C | 87% | 1008.4 hPa | 0 mm | - | 10 W/m² | - |
| 1777590107 | 11.67° C | 87% | 1008.4 hPa | 0 mm | - | 13 W/m² | - |
| 1777589803 | 11.11° C | 86% | 1008.4 hPa | 0 mm | - | 15 W/m² | - |
| 1777589498 | 11.67° C | 86% | 1008.2 hPa | 0 mm | - | 13 W/m² | - |
| 1777589198 | 11.67° C | 86% | 1008.2 hPa | 0 mm | - | 11 W/m² | - |
| 1777588894 | 11.67° C | 85% | 1008.1 hPa | 0.51 mm | - | 12 W/m² | - |
| 1777588590 | 11.67° C | 84% | 1008.1 hPa | 1.27 mm | - | 23 W/m² | - |
| 1777588285 | 11.67° C | 85% | 1008.1 hPa | 0.51 mm | - | 34 W/m² | - |
| 1777587981 | 11.67° C | 83% | 1008 hPa | 1.27 mm | - | 43 W/m² | - |
| 1777587678 | 11.67° C | 80% | 1008.1 hPa | 3.05 mm | - | 37 W/m² | - |
| 1777587377 | 12.22° C | 75% | 1007.8 hPa | 3.05 mm | - | 27 W/m² | - |
| 1777587074 | 13.89° C | 65% | 1008.1 hPa | 1.78 mm | - | 20 W/m² | - |
| 1777586770 | 15.56° C | 58% | 1007.5 hPa | 0 mm | - | 20 W/m² | - |
| 1777586465 | 16.11° C | 50% | 1007.1 hPa | 0 mm | - | 18 W/m² | - |
| 1777586160 | 16.11° C | 51% | 1007 hPa | 0 mm | - | 23 W/m² | - |
* Rain latest hour (hover to see other rain measurements)
** Current wind speed in m/s (hover to see current wind gust speed)